createdAt,value
2023-05-10T21:56:26.547Z,100348.35
2023-05-10T21:58:18.429Z,100349.23
2023-05-10T22:00:11.308Z,100352.06
2023-05-10T22:02:03.269Z,100352.52
2023-05-10T22:03:54.644Z,100355.62
2023-05-10T22:05:46.422Z,100360.39
2023-05-10T22:07:38.461Z,100358.85
2023-05-10T22:09:30.338Z,100357.55
2023-05-10T22:11:22.103Z,100356.46
2023-05-10T22:13:13.408Z,100361.48
2023-05-10T22:17:00.443Z,100356.63
2023-05-10T22:18:54.638Z,100362.57
2023-05-10T22:20:46.558Z,100358.36
2023-05-10T22:22:38.047Z,100360.81
2023-05-10T22:24:30.714Z,100364.42
2023-05-10T22:26:22.662Z,100363.63
2023-05-10T22:28:14.104Z,100365.09
2023-05-10T22:30:07.250Z,100365.86
2023-05-10T22:31:58.844Z,100366.31
2023-05-10T22:33:50.527Z,100367.07
2023-05-10T22:35:42.147Z,100365.94
2023-05-10T22:37:33.319Z,100363.61
2023-05-10T22:39:24.877Z,100368.02
2023-05-10T22:41:16.827Z,100362.16
2023-05-10T22:43:08.368Z,100368.30
2023-05-10T22:44:59.836Z,100367.13
2023-05-10T22:46:51.903Z,100365.73
2023-05-10T22:48:43.778Z,100371.31
2023-05-10T22:50:37.136Z,100367.84
2023-05-10T22:52:29.519Z,100371.61
2023-05-10T22:54:20.866Z,100369.92
2023-05-10T22:56:12.533Z,100369.33
2023-05-10T22:58:03.854Z,100378.57
2023-05-10T22:59:55.485Z,100372.20
2023-05-10T23:01:48.951Z,100376.66
2023-05-10T23:03:40.519Z,100377.30
2023-05-10T23:05:32.322Z,100378.77
2023-05-10T23:07:24.224Z,100383.40
2023-05-10T23:09:15.649Z,100374.48
2023-05-10T23:11:07.215Z,100380.00
2023-05-10T23:12:58.985Z,100380.20
2023-05-10T23:14:50.838Z,100380.06
2023-05-10T23:16:42.538Z,100382.33
2023-05-10T23:18:34.217Z,100385.39
2023-05-10T23:20:26.380Z,100384.85
2023-05-10T23:22:17.820Z,100387.23
2023-05-10T23:24:09.305Z,100387.10
2023-05-10T23:26:01.848Z,100389.11
2023-05-10T23:27:53.587Z,100391.19
2023-05-10T23:29:45.245Z,100388.03
2023-05-10T23:31:37.414Z,100389.05
2023-05-10T23:33:29.172Z,100392.59
2023-05-10T23:35:20.818Z,100390.80
2023-05-10T23:37:12.807Z,100391.06
2023-05-10T23:39:04.897Z,100394.46
2023-05-10T23:40:56.483Z,100391.58
2023-05-10T23:42:48.249Z,100395.42
2023-05-10T23:44:39.592Z,100397.52
2023-05-10T23:46:31.336Z,100399.77
2023-05-10T23:48:23.442Z,100400.17
2023-05-10T23:50:15.206Z,100399.76
2023-05-10T23:52:07.106Z,100405.60
2023-05-10T23:53:59.307Z,100400.64
2023-05-10T23:55:50.604Z,100399.61
2023-05-10T23:57:41.892Z,100399.02
2023-05-10T23:59:33.520Z,100403.56
